LPPR/OPO METAR and TAF weather

Enter ICAO airport designator
Station Type Date Time Source
LPPR METAR 2020/07/05 04:00 UTC NOAA

LPPR 050400Z 00000KT CAVOK 16/15 Q1019


Station Type Date Time Source
LPPR Decoded METAR 2020/07/05 04:00 UTC NOAA

Porto / Pedras Rubras, Portugal (LPPR) 41-14N 008-41W 77M
Jul 05, 2020 - 12:00 AM EDT / 2020.07.05 0400 UTC
Wind: Calm:0
Visibility: greater than 7 mile(s):0
Temperature: 60 F (16 C)
Dew Point: 59 F (15 C)
Relative Humidity: 93%
Pressure (altimeter): 30.09 in. Hg (1019 hPa)
ob: LPPR 050400Z 00000KT CAVOK 16/15 Q1019
cycle: 4

Station Type Date Time Source
LPPR TAF 2020/07/04 18:18 UTC NOAA

TAF LPPR 041700Z 0418/0518 34013KT CAVOK
BECMG 0419/0421 35005KT
BECMG 0500/0503 VRB02KT
BECMG 0509/0511 31013KT

Example: see airport list